sensor_id;sensor_type;location;lat;lon;timestamp;temperature;humidity
48946;DHT22;34999;50.940;3.998;2023-04-03T00:01:19;0.20;99.90
48946;DHT22;34999;50.940;3.998;2023-04-03T00:03:48;0.20;99.90
48946;DHT22;34999;50.940;3.998;2023-04-03T00:06:16;0.20;99.90
48946;DHT22;34999;50.940;3.998;2023-04-03T00:08:46;0.20;99.90
48946;DHT22;34999;50.940;3.998;2023-04-03T00:11:15;0.20;99.90
48946;DHT22;34999;50.940;3.998;2023-04-03T00:13:44;0.20;99.90
48946;DHT22;34999;50.940;3.998;2023-04-03T00:16:12;0.10;99.90
48946;DHT22;34999;50.940;3.998;2023-04-03T00:18:41;0.10;99.90
48946;DHT22;34999;50.940;3.998;2023-04-03T00:21:10;0.10;99.90
48946;DHT22;34999;50.940;3.998;2023-04-03T00:23:40;0.10;99.90
48946;DHT22;34999;50.940;3.998;2023-04-03T00:26:09;0.10;99.90
48946;DHT22;34999;50.940;3.998;2023-04-03T00:28:37;0.10;99.90
48946;DHT22;34999;50.940;3.998;2023-04-03T00:31:06;0.10;99.90
48946;DHT22;34999;50.940;3.998;2023-04-03T00:33:34;0.10;99.90
48946;DHT22;34999;50.940;3.998;2023-04-03T00:36:06;0.10;99.90
48946;DHT22;34999;50.940;3.998;2023-04-03T00:38:35;0.00;99.90
48946;DHT22;34999;50.940;3.998;2023-04-03T00:41:03;0.00;99.90
48946;DHT22;34999;50.940;3.998;2023-04-03T00:43:33;-0.10;99.90
48946;DHT22;34999;50.940;3.998;2023-04-03T00:46:02;-0.10;99.90
48946;DHT22;34999;50.940;3.998;2023-04-03T00:48:33;-0.10;99.90
48946;DHT22;34999;50.940;3.998;2023-04-03T00:51:04;-0.10;99.90
48946;DHT22;34999;50.940;3.998;2023-04-03T00:53:37;-0.10;99.90
48946;DHT22;34999;50.940;3.998;2023-04-03T00:56:09;-0.10;99.90
48946;DHT22;34999;50.940;3.998;2023-04-03T00:58:42;-0.10;99.90
48946;DHT22;34999;50.940;3.998;2023-04-03T01:01:14;-0.10;99.90
48946;DHT22;34999;50.940;3.998;2023-04-03T01:03:43;-0.10;99.90
48946;DHT22;34999;50.940;3.998;2023-04-03T01:06:11;-0.10;99.90
48946;DHT22;34999;50.940;3.998;2023-04-03T01:08:41;-0.10;99.90
48946;DHT22;34999;50.940;3.998;2023-04-03T01:11:09;-0.10;99.90
48946;DHT22;34999;50.940;3.998;2023-04-03T01:13:37;-0.20;99.90
48946;DHT22;34999;50.940;3.998;2023-04-03T01:16:07;-0.20;99.90
48946;DHT22;34999;50.940;3.998;2023-04-03T01:18:37;-0.20;99.90
48946;DHT22;34999;50.940;3.998;2023-04-03T01:21:26;-0.20;99.90
48946;DHT22;34999;50.940;3.998;2023-04-03T01:26:51;-0.20;99.90
48946;DHT22;34999;50.940;3.998;2023-04-03T01:29:19;-0.20;99.90
48946;DHT22;34999;50.940;3.998;2023-04-03T01:31:51;-0.20;99.90
48946;DHT22;34999;50.940;3.998;2023-04-03T01:34:20;-0.20;99.90
48946;DHT22;34999;50.940;3.998;2023-04-03T01:36:49;-0.20;99.90
48946;DHT22;34999;50.940;3.998;2023-04-03T01:39:18;-0.20;99.90
48946;DHT22;34999;50.940;3.998;2023-04-03T01:41:47;-0.20;99.90
48946;DHT22;34999;50.940;3.998;2023-04-03T01:44:15;-0.20;99.90
48946;DHT22;34999;50.940;3.998;2023-04-03T01:46:43;-0.20;99.90
48946;DHT22;34999;50.940;3.998;2023-04-03T01:49:13;-0.30;99.90
48946;DHT22;34999;50.940;3.998;2023-04-03T01:51:41;-0.20;99.90
48946;DHT22;34999;50.940;3.998;2023-04-03T01:54:09;-0.20;99.90
48946;DHT22;34999;50.940;3.998;2023-04-03T01:56:38;-0.20;99.90
48946;DHT22;34999;50.940;3.998;2023-04-03T01:59:06;-0.20;99.90
48946;DHT22;34999;50.940;3.998;2023-04-03T02:01:34;-0.20;99.90
48946;DHT22;34999;50.940;3.998;2023-04-03T02:04:03;-0.20;99.90
48946;DHT22;34999;50.940;3.998;2023-04-03T02:06:32;-0.20;99.90
48946;DHT22;34999;50.940;3.998;2023-04-03T02:09:01;-0.20;99.90
48946;DHT22;34999;50.940;3.998;2023-04-03T02:11:30;-0.30;99.90
48946;DHT22;34999;50.940;3.998;2023-04-03T02:13:58;-0.30;99.90
48946;DHT22;34999;50.940;3.998;2023-04-03T02:16:26;-0.30;99.90
48946;DHT22;34999;50.940;3.998;2023-04-03T02:18:56;-0.30;99.90
48946;DHT22;34999;50.940;3.998;2023-04-03T02:21:24;-0.20;99.90
48946;DHT22;34999;50.940;3.998;2023-04-03T02:23:53;-0.20;99.90
48946;DHT22;34999;50.940;3.998;2023-04-03T02:26:22;-0.20;99.90
48946;DHT22;34999;50.940;3.998;2023-04-03T02:28:50;-0.20;99.90
48946;DHT22;34999;50.940;3.998;2023-04-03T02:31:18;-0.20;99.90
48946;DHT22;34999;50.940;3.998;2023-04-03T02:33:47;-0.10;99.90
48946;DHT22;34999;50.940;3.998;2023-04-03T02:36:16;-0.10;99.90
48946;DHT22;34999;50.940;3.998;2023-04-03T02:38:44;-0.20;99.90
48946;DHT22;34999;50.940;3.998;2023-04-03T02:41:15;-0.20;99.90
48946;DHT22;34999;50.940;3.998;2023-04-03T02:43:43;-0.20;99.90
48946;DHT22;34999;50.940;3.998;2023-04-03T02:46:11;-0.30;99.90
48946;DHT22;34999;50.940;3.998;2023-04-03T02:48:41;-0.20;99.90
48946;DHT22;34999;50.940;3.998;2023-04-03T02:51:10;-0.20;99.90
48946;DHT22;34999;50.940;3.998;2023-04-03T02:53:38;-0.30;99.90
48946;DHT22;34999;50.940;3.998;2023-04-03T02:56:07;-0.40;99.90
48946;DHT22;34999;50.940;3.998;2023-04-03T02:58:39;-0.40;99.90
48946;DHT22;34999;50.940;3.998;2023-04-03T03:01:07;-0.40;99.90
48946;DHT22;34999;50.940;3.998;2023-04-03T03:03:36;-0.40;99.90
48946;DHT22;34999;50.940;3.998;2023-04-03T03:06:06;-0.40;99.90
48946;DHT22;34999;50.940;3.998;2023-04-03T03:08:35;-0.40;99.90
48946;DHT22;34999;50.940;3.998;2023-04-03T03:11:04;-0.40;99.90
48946;DHT22;34999;50.940;3.998;2023-04-03T03:13:33;-0.40;99.90
48946;DHT22;34999;50.940;3.998;2023-04-03T03:16:03;-0.40;99.90
48946;DHT22;34999;50.940;3.998;2023-04-03T03:18:32;-0.40;99.90
48946;DHT22;34999;50.940;3.998;2023-04-03T03:21:01;-0.40;99.90
48946;DHT22;34999;50.940;3.998;2023-04-03T03:23:30;-0.40;99.90
48946;DHT22;34999;50.940;3.998;2023-04-03T03:26:03;-0.40;99.90
48946;DHT22;34999;50.940;3.998;2023-04-03T03:28:31;-0.50;99.90
48946;DHT22;34999;50.940;3.998;2023-04-03T03:31:00;-0.40;99.90
48946;DHT22;34999;50.940;3.998;2023-04-03T03:33:30;-0.40;99.90
48946;DHT22;34999;50.940;3.998;2023-04-03T03:35:58;-0.40;99.90
48946;DHT22;34999;50.940;3.998;2023-04-03T03:38:26;-0.40;99.90
48946;DHT22;34999;50.940;3.998;2023-04-03T03:40:55;-0.40;99.90
48946;DHT22;34999;50.940;3.998;2023-04-03T03:43:23;-0.40;99.90
48946;DHT22;34999;50.940;3.998;2023-04-03T03:45:52;-0.40;99.90
48946;DHT22;34999;50.940;3.998;2023-04-03T03:48:21;-0.40;99.90
48946;DHT22;34999;50.940;3.998;2023-04-03T03:50:50;-0.40;99.90
48946;DHT22;34999;50.940;3.998;2023-04-03T03:53:19;-0.40;99.90
48946;DHT22;34999;50.940;3.998;2023-04-03T03:55:47;-0.50;99.90
48946;DHT22;34999;50.940;3.998;2023-04-03T03:58:15;-0.50;99.90
48946;DHT22;34999;50.940;3.998;2023-04-03T04:00:43;-0.50;99.90
48946;DHT22;34999;50.940;3.998;2023-04-03T04:03:12;-0.50;99.90
48946;DHT22;34999;50.940;3.998;2023-04-03T04:05:40;-0.50;99.90
48946;DHT22;34999;50.940;3.998;2023-04-03T04:08:09;-0.50;99.90
48946;DHT22;34999;50.940;3.998;2023-04-03T04:10:38;-0.40;99.90
48946;DHT22;34999;50.940;3.998;2023-04-03T04:13:06;-0.50;99.90
48946;DHT22;34999;50.940;3.998;2023-04-03T04:15:34;-0.50;99.90
48946;DHT22;34999;50.940;3.998;2023-04-03T04:18:03;-0.50;99.90
48946;DHT22;34999;50.940;3.998;2023-04-03T04:20:31;-0.60;99.90
48946;DHT22;34999;50.940;3.998;2023-04-03T04:23:00;-0.60;99.90
48946;DHT22;34999;50.940;3.998;2023-04-03T04:25:29;-0.60;99.90
48946;DHT22;34999;50.940;3.998;2023-04-03T04:27:57;-0.60;99.90
48946;DHT22;34999;50.940;3.998;2023-04-03T04:30:26;-0.60;99.90
48946;DHT22;34999;50.940;3.998;2023-04-03T04:32:54;-0.60;99.90
48946;DHT22;34999;50.940;3.998;2023-04-03T04:35:23;-0.60;99.90
48946;DHT22;34999;50.940;3.998;2023-04-03T04:37:51;-0.70;99.90
48946;DHT22;34999;50.940;3.998;2023-04-03T04:40:19;-0.70;99.90
48946;DHT22;34999;50.940;3.998;2023-04-03T04:42:49;-0.70;99.90
48946;DHT22;34999;50.940;3.998;2023-04-03T04:45:17;-0.80;99.90
48946;DHT22;34999;50.940;3.998;2023-04-03T04:47:46;-0.80;99.90
48946;DHT22;34999;50.940;3.998;2023-04-03T04:50:14;-0.80;99.90
48946;DHT22;34999;50.940;3.998;2023-04-03T04:52:43;-0.80;99.90
48946;DHT22;34999;50.940;3.998;2023-04-03T04:55:11;-0.90;99.90
48946;DHT22;34999;50.940;3.998;2023-04-03T04:57:39;-0.90;99.90
48946;DHT22;34999;50.940;3.998;2023-04-03T05:00:10;-0.90;99.90
48946;DHT22;34999;50.940;3.998;2023-04-03T05:02:39;-0.90;99.90
48946;DHT22;34999;50.940;3.998;2023-04-03T05:05:08;-0.90;99.90
48946;DHT22;34999;50.940;3.998;2023-04-03T05:07:36;-0.80;99.90
48946;DHT22;34999;50.940;3.998;2023-04-03T05:10:06;-0.80;99.90
48946;DHT22;34999;50.940;3.998;2023-04-03T05:12:34;-0.80;99.90
48946;DHT22;34999;50.940;3.998;2023-04-03T05:15:03;-0.80;99.90
48946;DHT22;34999;50.940;3.998;2023-04-03T05:17:33;-0.70;99.90
48946;DHT22;34999;50.940;3.998;2023-04-03T05:20:02;-0.60;99.90
48946;DHT22;34999;50.940;3.998;2023-04-03T05:22:31;-0.50;99.90
48946;DHT22;34999;50.940;3.998;2023-04-03T05:24:59;-0.40;99.90
48946;DHT22;34999;50.940;3.998;2023-04-03T05:27:28;-0.40;99.90
48946;DHT22;34999;50.940;3.998;2023-04-03T05:29:56;-0.40;99.90
48946;DHT22;34999;50.940;3.998;2023-04-03T05:32:25;-0.50;99.90
48946;DHT22;34999;50.940;3.998;2023-04-03T05:34:55;-0.30;99.90
48946;DHT22;34999;50.940;3.998;2023-04-03T05:37:27;-0.20;99.90
48946;DHT22;34999;50.940;3.998;2023-04-03T05:39:55;-0.20;99.90
48946;DHT22;34999;50.940;3.998;2023-04-03T05:42:23;-0.20;99.90
48946;DHT22;34999;50.940;3.998;2023-04-03T05:44:51;-0.20;99.90
48946;DHT22;34999;50.940;3.998;2023-04-03T05:47:20;-0.20;99.90
48946;DHT22;34999;50.940;3.998;2023-04-03T05:49:48;-0.20;99.90
48946;DHT22;34999;50.940;3.998;2023-04-03T05:52:22;-0.10;99.90
48946;DHT22;34999;50.940;3.998;2023-04-03T05:54:50;0.00;99.90
48946;DHT22;34999;50.940;3.998;2023-04-03T05:57:19;0.00;99.90
48946;DHT22;34999;50.940;3.998;2023-04-03T05:59:48;0.10;99.90
48946;DHT22;34999;50.940;3.998;2023-04-03T06:02:18;0.20;99.90
48946;DHT22;34999;50.940;3.998;2023-04-03T06:04:47;0.20;99.90
48946;DHT22;34999;50.940;3.998;2023-04-03T06:07:19;0.30;99.90
48946;DHT22;34999;50.940;3.998;2023-04-03T06:09:50;0.40;99.90
48946;DHT22;34999;50.940;3.998;2023-04-03T06:12:18;0.50;99.90
48946;DHT22;34999;50.940;3.998;2023-04-03T06:14:47;0.60;99.90
48946;DHT22;34999;50.940;3.998;2023-04-03T06:17:16;0.70;99.90
48946;DHT22;34999;50.940;3.998;2023-04-03T06:19:45;0.90;99.90
48946;DHT22;34999;50.940;3.998;2023-04-03T06:22:13;1.20;99.90
48946;DHT22;34999;50.940;3.998;2023-04-03T06:24:43;1.30;99.90
48946;DHT22;34999;50.940;3.998;2023-04-03T06:27:12;1.60;99.90
48946;DHT22;34999;50.940;3.998;2023-04-03T06:29:40;1.70;99.90
48946;DHT22;34999;50.940;3.998;2023-04-03T06:32:09;1.90;99.90
48946;DHT22;34999;50.940;3.998;2023-04-03T06:34:37;2.30;99.90
48946;DHT22;34999;50.940;3.998;2023-04-03T06:37:05;2.80;99.90
48946;DHT22;34999;50.940;3.998;2023-04-03T06:39:34;3.40;99.90
48946;DHT22;34999;50.940;3.998;2023-04-03T06:42:04;4.00;99.90
48946;DHT22;34999;50.940;3.998;2023-04-03T06:44:32;4.60;99.90
48946;DHT22;34999;50.940;3.998;2023-04-03T06:47:02;5.20;99.90
48946;DHT22;34999;50.940;3.998;2023-04-03T06:49:30;5.70;99.90
48946;DHT22;34999;50.940;3.998;2023-04-03T06:51:58;6.40;99.90
48946;DHT22;34999;50.940;3.998;2023-04-03T06:54:28;6.50;99.90
48946;DHT22;34999;50.940;3.998;2023-04-03T06:56:56;6.70;99.90
48946;DHT22;34999;50.940;3.998;2023-04-03T06:59:26;6.80;99.90
48946;DHT22;34999;50.940;3.998;2023-04-03T07:01:55;6.80;99.90
48946;DHT22;34999;50.940;3.998;2023-04-03T07:04:23;7.00;99.90
48946;DHT22;34999;50.940;3.998;2023-04-03T07:06:54;7.40;99.90
48946;DHT22;34999;50.940;3.998;2023-04-03T07:09:22;7.60;99.90
48946;DHT22;34999;50.940;3.998;2023-04-03T07:11:51;8.00;99.90
48946;DHT22;34999;50.940;3.998;2023-04-03T07:14:19;8.60;99.90
48946;DHT22;34999;50.940;3.998;2023-04-03T07:16:49;8.50;99.90
48946;DHT22;34999;50.940;3.998;2023-04-03T07:19:17;8.60;99.90
48946;DHT22;34999;50.940;3.998;2023-04-03T07:21:46;9.10;99.90
48946;DHT22;34999;50.940;3.998;2023-04-03T07:24:14;9.60;99.90
48946;DHT22;34999;50.940;3.998;2023-04-03T07:26:43;10.10;99.90
48946;DHT22;34999;50.940;3.998;2023-04-03T07:29:12;10.50;99.90
48946;DHT22;34999;50.940;3.998;2023-04-03T07:31:41;10.40;99.90
48946;DHT22;34999;50.940;3.998;2023-04-03T07:34:13;10.20;99.90
48946;DHT22;34999;50.940;3.998;2023-04-03T07:36:41;10.10;99.90
48946;DHT22;34999;50.940;3.998;2023-04-03T07:39:09;10.20;99.90
48946;DHT22;34999;50.940;3.998;2023-04-03T07:41:38;10.10;99.90
48946;DHT22;34999;50.940;3.998;2023-04-03T07:44:06;9.50;99.90
48946;DHT22;34999;50.940;3.998;2023-04-03T07:46:37;9.50;99.90
48946;DHT22;34999;50.940;3.998;2023-04-03T07:49:05;9.50;99.90
48946;DHT22;34999;50.940;3.998;2023-04-03T07:51:34;9.70;99.90
48946;DHT22;34999;50.940;3.998;2023-04-03T07:54:03;10.20;99.90
48946;DHT22;34999;50.940;3.998;2023-04-03T07:56:32;10.60;99.90
48946;DHT22;34999;50.940;3.998;2023-04-03T07:59:01;10.80;99.90
48946;DHT22;34999;50.940;3.998;2023-04-03T08:01:29;10.90;99.90
48946;DHT22;34999;50.940;3.998;2023-04-03T08:03:59;11.00;99.90
48946;DHT22;34999;50.940;3.998;2023-04-03T08:06:28;10.80;99.90
48946;DHT22;34999;50.940;3.998;2023-04-03T08:09:13;10.60;99.90
48946;DHT22;34999;50.940;3.998;2023-04-03T08:11:43;10.70;99.90
48946;DHT22;34999;50.940;3.998;2023-04-03T08:14:11;10.80;99.90
48946;DHT22;34999;50.940;3.998;2023-04-03T08:16:44;11.00;99.90
48946;DHT22;34999;50.940;3.998;2023-04-03T08:19:13;11.00;99.90
48946;DHT22;34999;50.940;3.998;2023-04-03T08:21:53;11.50;99.90
48946;DHT22;34999;50.940;3.998;2023-04-03T08:24:23;11.50;99.90
48946;DHT22;34999;50.940;3.998;2023-04-03T08:26:55;11.80;99.90
48946;DHT22;34999;50.940;3.998;2023-04-03T08:29:23;12.30;99.90
48946;DHT22;34999;50.940;3.998;2023-04-03T08:31:55;12.70;99.90
48946;DHT22;34999;50.940;3.998;2023-04-03T08:34:23;13.00;99.90
48946;DHT22;34999;50.940;3.998;2023-04-03T08:36:51;13.40;99.90
48946;DHT22;34999;50.940;3.998;2023-04-03T08:39:20;13.20;99.90
48946;DHT22;34999;50.940;3.998;2023-04-03T08:41:49;13.30;99.90
48946;DHT22;34999;50.940;3.998;2023-04-03T08:44:24;13.00;99.90
48946;DHT22;34999;50.940;3.998;2023-04-03T08:47:02;13.10;99.90
48946;DHT22;34999;50.940;3.998;2023-04-03T08:49:33;13.30;99.90
48946;DHT22;34999;50.940;3.998;2023-04-03T08:52:08;13.60;99.90
48946;DHT22;34999;50.940;3.998;2023-04-03T08:54:47;13.60;99.90
48946;DHT22;34999;50.940;3.998;2023-04-03T08:57:17;13.40;99.90
48946;DHT22;34999;50.940;3.998;2023-04-03T08:59:48;13.70;99.90
48946;DHT22;34999;50.940;3.998;2023-04-03T09:02:25;13.90;99.90
48946;DHT22;34999;50.940;3.998;2023-04-03T09:04:54;13.70;99.90
48946;DHT22;34999;50.940;3.998;2023-04-03T09:07:31;13.50;99.90
48946;DHT22;34999;50.940;3.998;2023-04-03T09:10:01;13.30;99.90
48946;DHT22;34999;50.940;3.998;2023-04-03T09:12:37;13.10;99.90
48946;DHT22;34999;50.940;3.998;2023-04-03T09:15:14;13.10;99.90
48946;DHT22;34999;50.940;3.998;2023-04-03T09:17:57;13.00;99.90
48946;DHT22;34999;50.940;3.998;2023-04-03T09:20:36;13.10;99.90
48946;DHT22;34999;50.940;3.998;2023-04-03T09:23:19;13.10;99.90
48946;DHT22;34999;50.940;3.998;2023-04-03T09:25:54;13.50;99.90
48946;DHT22;34999;50.940;3.998;2023-04-03T09:28:27;14.10;99.90
48946;DHT22;34999;50.940;3.998;2023-04-03T09:31:03;13.80;99.90
48946;DHT22;34999;50.940;3.998;2023-04-03T09:33:34;13.40;99.90
48946;DHT22;34999;50.940;3.998;2023-04-03T09:36:04;14.00;99.90
48946;DHT22;34999;50.940;3.998;2023-04-03T09:38:32;14.20;99.90
48946;DHT22;34999;50.940;3.998;2023-04-03T09:41:06;14.10;99.90
48946;DHT22;34999;50.940;3.998;2023-04-03T09:43:37;14.40;99.90
48946;DHT22;34999;50.940;3.998;2023-04-03T09:46:25;14.80;99.90
48946;DHT22;34999;50.940;3.998;2023-04-03T09:48:58;15.20;99.90
48946;DHT22;34999;50.940;3.998;2023-04-03T09:51:36;15.20;99.90
48946;DHT22;34999;50.940;3.998;2023-04-03T09:54:30;15.40;99.90
48946;DHT22;34999;50.940;3.998;2023-04-03T09:57:03;15.40;99.90
48946;DHT22;34999;50.940;3.998;2023-04-03T09:59:34;15.50;99.90
48946;DHT22;34999;50.940;3.998;2023-04-03T10:02:04;15.60;99.90
48946;DHT22;34999;50.940;3.998;2023-04-03T10:04:45;15.80;99.90
48946;DHT22;34999;50.940;3.998;2023-04-03T10:07:32;16.10;99.90
48946;DHT22;34999;50.940;3.998;2023-04-03T10:10:03;15.40;99.90
48946;DHT22;34999;50.940;3.998;2023-04-03T10:12:31;15.60;99.90
48946;DHT22;34999;50.940;3.998;2023-04-03T10:15:01;16.10;99.90
48946;DHT22;34999;50.940;3.998;2023-04-03T10:17:51;16.10;99.90
48946;DHT22;34999;50.940;3.998;2023-04-03T10:20:31;16.40;99.90
48946;DHT22;34999;50.940;3.998;2023-04-03T10:23:12;16.60;99.90
48946;DHT22;34999;50.940;3.998;2023-04-03T10:25:48;16.00;99.90
48946;DHT22;34999;50.940;3.998;2023-04-03T10:28:24;15.40;99.90
48946;DHT22;34999;50.940;3.998;2023-04-03T10:30:58;15.60;99.90
48946;DHT22;34999;50.940;3.998;2023-04-03T10:33:39;15.70;99.90
48946;DHT22;34999;50.940;3.998;2023-04-03T10:36:19;15.70;99.90
48946;DHT22;34999;50.940;3.998;2023-04-03T10:38:56;16.30;99.90
48946;DHT22;34999;50.940;3.998;2023-04-03T10:41:35;15.80;99.90
48946;DHT22;34999;50.940;3.998;2023-04-03T10:44:14;15.70;99.90
48946;DHT22;34999;50.940;3.998;2023-04-03T10:46:48;15.20;99.90
48946;DHT22;34999;50.940;3.998;2023-04-03T10:49:27;15.00;99.90
48946;DHT22;34999;50.940;3.998;2023-04-03T10:52:00;14.90;99.90
48946;DHT22;34999;50.940;3.998;2023-04-03T10:54:35;15.20;99.90
48946;DHT22;34999;50.940;3.998;2023-04-03T10:57:06;15.90;98.80
48946;DHT22;34999;50.940;3.998;2023-04-03T10:59:43;15.90;98.30
48946;DHT22;34999;50.940;3.998;2023-04-03T11:02:18;16.30;99.90
48946;DHT22;34999;50.940;3.998;2023-04-03T11:04:53;16.60;99.70
48946;DHT22;34999;50.940;3.998;2023-04-03T11:07:26;16.60;97.90
48946;DHT22;34999;50.940;3.998;2023-04-03T11:10:02;16.00;95.90
48946;DHT22;34999;50.940;3.998;2023-04-03T11:12:38;15.80;96.70
48946;DHT22;34999;50.940;3.998;2023-04-03T11:15:12;16.00;98.30
48946;DHT22;34999;50.940;3.998;2023-04-03T11:17:46;15.70;97.10
48946;DHT22;34999;50.940;3.998;2023-04-03T11:20:20;15.80;97.90
48946;DHT22;34999;50.940;3.998;2023-04-03T11:22:58;15.60;96.00
48946;DHT22;34999;50.940;3.998;2023-04-03T11:25:30;15.60;95.30
48946;DHT22;34999;50.940;3.998;2023-04-03T11:28:01;15.30;95.70
48946;DHT22;34999;50.940;3.998;2023-04-03T11:30:33;15.60;95.10
48946;DHT22;34999;50.940;3.998;2023-04-03T11:33:25;15.60;96.00
48946;DHT22;34999;50.940;3.998;2023-04-03T11:36:00;15.70;95.50
48946;DHT22;34999;50.940;3.998;2023-04-03T11:38:52;15.80;96.00
48946;DHT22;34999;50.940;3.998;2023-04-03T11:41:26;15.60;95.70
48946;DHT22;34999;50.940;3.998;2023-04-03T11:43:58;15.00;95.30
48946;DHT22;34999;50.940;3.998;2023-04-03T11:46:49;14.90;94.80
48946;DHT22;34999;50.940;3.998;2023-04-03T11:49:58;15.10;96.40
48946;DHT22;34999;50.940;3.998;2023-04-03T11:52:59;15.50;98.00
48946;DHT22;34999;50.940;3.998;2023-04-03T11:55:46;15.50;95.70
48946;DHT22;34999;50.940;3.998;2023-04-03T11:58:20;15.50;96.10
48946;DHT22;34999;50.940;3.998;2023-04-03T12:00:58;15.20;96.40
48946;DHT22;34999;50.940;3.998;2023-04-03T12:07:02;14.50;96.90
48946;DHT22;34999;50.940;3.998;2023-04-03T12:10:01;14.60;95.10
48946;DHT22;34999;50.940;3.998;2023-04-03T12:12:35;14.10;98.20
48946;DHT22;34999;50.940;3.998;2023-04-03T12:15:41;14.50;95.70
48946;DHT22;34999;50.940;3.998;2023-04-03T12:21:17;13.60;95.70
48946;DHT22;34999;50.940;3.998;2023-04-03T12:24:12;13.40;94.50
48946;DHT22;34999;50.940;3.998;2023-04-03T12:27:01;13.60;97.00
48946;DHT22;34999;50.940;3.998;2023-04-03T12:29:34;13.60;94.80
48946;DHT22;34999;50.940;3.998;2023-04-03T12:32:15;13.50;94.90
48946;DHT22;34999;50.940;3.998;2023-04-03T12:35:02;13.40;94.80
48946;DHT22;34999;50.940;3.998;2023-04-03T12:37:51;13.50;95.40
48946;DHT22;34999;50.940;3.998;2023-04-03T12:40:30;13.40;95.40
48946;DHT22;34999;50.940;3.998;2023-04-03T12:43:17;13.40;95.10
48946;DHT22;34999;50.940;3.998;2023-04-03T12:45:51;13.30;94.40
48946;DHT22;34999;50.940;3.998;2023-04-03T12:48:25;13.10;94.40
48946;DHT22;34999;50.940;3.998;2023-04-03T12:50:54;13.20;96.80
48946;DHT22;34999;50.940;3.998;2023-04-03T12:53:26;13.10;95.30
48946;DHT22;34999;50.940;3.998;2023-04-03T12:56:19;13.20;95.40
48946;DHT22;34999;50.940;3.998;2023-04-03T12:58:49;13.10;94.20
48946;DHT22;34999;50.940;3.998;2023-04-03T13:01:20;12.90;93.30
48946;DHT22;34999;50.940;3.998;2023-04-03T13:03:52;12.50;92.80
48946;DHT22;34999;50.940;3.998;2023-04-03T13:06:23;12.40;94.70
48946;DHT22;34999;50.940;3.998;2023-04-03T13:08:54;12.40;93.40
48946;DHT22;34999;50.940;3.998;2023-04-03T13:11:28;12.50;95.50
48946;DHT22;34999;50.940;3.998;2023-04-03T13:14:00;12.70;95.00
48946;DHT22;34999;50.940;3.998;2023-04-03T13:16:30;13.10;95.70
48946;DHT22;34999;50.940;3.998;2023-04-03T13:18:59;13.00;94.50
48946;DHT22;34999;50.940;3.998;2023-04-03T13:21:29;12.70;91.50
48946;DHT22;34999;50.940;3.998;2023-04-03T13:24:01;12.70;91.80
48946;DHT22;34999;50.940;3.998;2023-04-03T13:26:43;12.70;92.40
48946;DHT22;34999;50.940;3.998;2023-04-03T13:29:22;12.40;92.70
48946;DHT22;34999;50.940;3.998;2023-04-03T13:31:58;12.20;93.70
48946;DHT22;34999;50.940;3.998;2023-04-03T13:34:32;12.30;94.10
48946;DHT22;34999;50.940;3.998;2023-04-03T13:37:04;12.40;93.10
48946;DHT22;34999;50.940;3.998;2023-04-03T13:39:35;12.50;94.00
48946;DHT22;34999;50.940;3.998;2023-04-03T13:42:16;12.80;96.40
48946;DHT22;34999;50.940;3.998;2023-04-03T13:44:48;12.90;92.30
48946;DHT22;34999;50.940;3.998;2023-04-03T13:47:20;12.50;92.50
48946;DHT22;34999;50.940;3.998;2023-04-03T13:50:00;12.30;93.20
48946;DHT22;34999;50.940;3.998;2023-04-03T13:52:31;12.20;93.10
48946;DHT22;34999;50.940;3.998;2023-04-03T13:55:16;12.30;92.00
48946;DHT22;34999;50.940;3.998;2023-04-03T13:57:55;12.70;93.30
48946;DHT22;34999;50.940;3.998;2023-04-03T14:00:31;12.90;92.20
48946;DHT22;34999;50.940;3.998;2023-04-03T14:03:00;12.70;91.40
48946;DHT22;34999;50.940;3.998;2023-04-03T14:05:29;12.90;91.80
48946;DHT22;34999;50.940;3.998;2023-04-03T14:07:57;12.70;91.30
48946;DHT22;34999;50.940;3.998;2023-04-03T14:10:26;12.80;93.30
48946;DHT22;34999;50.940;3.998;2023-04-03T14:12:55;12.80;92.10
48946;DHT22;34999;50.940;3.998;2023-04-03T14:15:27;12.80;92.40
48946;DHT22;34999;50.940;3.998;2023-04-03T14:17:55;12.60;91.50
48946;DHT22;34999;50.940;3.998;2023-04-03T14:20:27;12.50;90.80
48946;DHT22;34999;50.940;3.998;2023-04-03T14:22:56;12.80;94.80
48946;DHT22;34999;50.940;3.998;2023-04-03T14:25:25;13.10;95.40
48946;DHT22;34999;50.940;3.998;2023-04-03T14:27:55;13.10;91.10
48946;DHT22;34999;50.940;3.998;2023-04-03T14:30:26;12.90;93.10
48946;DHT22;34999;50.940;3.998;2023-04-03T14:32:55;12.80;92.40
48946;DHT22;34999;50.940;3.998;2023-04-03T14:35:24;12.50;91.50
48946;DHT22;34999;50.940;3.998;2023-04-03T14:37:53;12.30;90.90
48946;DHT22;34999;50.940;3.998;2023-04-03T14:40:25;12.40;93.10
48946;DHT22;34999;50.940;3.998;2023-04-03T14:42:56;12.30;92.10
48946;DHT22;34999;50.940;3.998;2023-04-03T14:45:25;12.50;92.10
48946;DHT22;34999;50.940;3.998;2023-04-03T14:47:54;12.70;92.10
48946;DHT22;34999;50.940;3.998;2023-04-03T14:50:26;12.70;91.50
48946;DHT22;34999;50.940;3.998;2023-04-03T14:52:57;12.80;92.10
48946;DHT22;34999;50.940;3.998;2023-04-03T14:55:26;12.90;92.10
48946;DHT22;34999;50.940;3.998;2023-04-03T14:57:56;12.80;92.50
48946;DHT22;34999;50.940;3.998;2023-04-03T15:00:24;12.90;92.00
48946;DHT22;34999;50.940;3.998;2023-04-03T15:02:52;12.60;92.10
48946;DHT22;34999;50.940;3.998;2023-04-03T15:05:21;12.70;91.40
48946;DHT22;34999;50.940;3.998;2023-04-03T15:07:52;12.70;91.60
48946;DHT22;34999;50.940;3.998;2023-04-03T15:10:23;12.80;91.30
48946;DHT22;34999;50.940;3.998;2023-04-03T15:12:52;12.90;91.60
48946;DHT22;34999;50.940;3.998;2023-04-03T15:15:23;12.80;91.80
48946;DHT22;34999;50.940;3.998;2023-04-03T15:17:53;12.80;93.00
48946;DHT22;34999;50.940;3.998;2023-04-03T15:20:25;12.70;93.30
48946;DHT22;34999;50.940;3.998;2023-04-03T15:22:55;12.80;93.60
48946;DHT22;34999;50.940;3.998;2023-04-03T15:25:24;13.00;92.50
48946;DHT22;34999;50.940;3.998;2023-04-03T15:27:53;12.90;91.70
48946;DHT22;34999;50.940;3.998;2023-04-03T15:30:24;13.20;91.90
48946;DHT22;34999;50.940;3.998;2023-04-03T15:32:52;13.10;90.80
48946;DHT22;34999;50.940;3.998;2023-04-03T15:35:20;13.00;90.30
48946;DHT22;34999;50.940;3.998;2023-04-03T15:37:49;13.00;90.50
48946;DHT22;34999;50.940;3.998;2023-04-03T15:40:18;13.00;90.80
48946;DHT22;34999;50.940;3.998;2023-04-03T15:42:46;12.90;91.60
48946;DHT22;34999;50.940;3.998;2023-04-03T15:45:14;12.60;90.60
48946;DHT22;34999;50.940;3.998;2023-04-03T15:47:44;12.50;90.80
48946;DHT22;34999;50.940;3.998;2023-04-03T15:50:12;12.50;89.40
48946;DHT22;34999;50.940;3.998;2023-04-03T15:52:41;12.30;88.50
48946;DHT22;34999;50.940;3.998;2023-04-03T15:55:09;12.40;90.40
48946;DHT22;34999;50.940;3.998;2023-04-03T15:57:37;12.70;91.60
48946;DHT22;34999;50.940;3.998;2023-04-03T16:00:07;12.60;90.20
48946;DHT22;34999;50.940;3.998;2023-04-03T16:02:36;12.60;90.90
48946;DHT22;34999;50.940;3.998;2023-04-03T16:05:07;12.70;90.30
48946;DHT22;34999;50.940;3.998;2023-04-03T16:07:36;12.60;90.60
48946;DHT22;34999;50.940;3.998;2023-04-03T16:10:06;12.70;90.70